sensor_id;sensor_type;location;lat;lon;timestamp;temperature;humidity
68139;DHT22;54940;50.842;4.410;2023-07-31T00:01:26;17.40;99.90
68139;DHT22;54940;50.842;4.410;2023-07-31T00:03:52;17.40;99.90
68139;DHT22;54940;50.842;4.410;2023-07-31T00:06:17;17.40;99.90
68139;DHT22;54940;50.842;4.410;2023-07-31T00:08:43;17.40;99.90
68139;DHT22;54940;50.842;4.410;2023-07-31T00:11:08;17.40;99.90
68139;DHT22;54940;50.842;4.410;2023-07-31T00:13:34;17.50;99.90
68139;DHT22;54940;50.842;4.410;2023-07-31T00:16:00;17.50;99.90
68139;DHT22;54940;50.842;4.410;2023-07-31T00:18:28;17.50;99.90
68139;DHT22;54940;50.842;4.410;2023-07-31T00:20:53;17.50;99.90
68139;DHT22;54940;50.842;4.410;2023-07-31T00:23:21;17.40;99.90
68139;DHT22;54940;50.842;4.410;2023-07-31T00:25:47;17.50;99.90
68139;DHT22;54940;50.842;4.410;2023-07-31T00:28:12;17.40;99.90
68139;DHT22;54940;50.842;4.410;2023-07-31T00:30:38;17.50;99.90
68139;DHT22;54940;50.842;4.410;2023-07-31T00:33:04;17.60;99.90
68139;DHT22;54940;50.842;4.410;2023-07-31T00:35:29;17.60;99.90
68139;DHT22;54940;50.842;4.410;2023-07-31T00:37:57;17.60;99.90
68139;DHT22;54940;50.842;4.410;2023-07-31T00:40:23;17.50;99.90
68139;DHT22;54940;50.842;4.410;2023-07-31T00:42:49;17.60;99.90
68139;DHT22;54940;50.842;4.410;2023-07-31T00:45:14;17.50;99.90
68139;DHT22;54940;50.842;4.410;2023-07-31T00:47:40;17.60;99.90
68139;DHT22;54940;50.842;4.410;2023-07-31T00:50:09;17.50;99.90
68139;DHT22;54940;50.842;4.410;2023-07-31T00:52:37;17.60;99.90
68139;DHT22;54940;50.842;4.410;2023-07-31T00:55:03;17.50;99.90
68139;DHT22;54940;50.842;4.410;2023-07-31T00:57:30;17.50;99.90
68139;DHT22;54940;50.842;4.410;2023-07-31T00:59:57;17.50;99.90
68139;DHT22;54940;50.842;4.410;2023-07-31T01:02:22;17.50;99.90
68139;DHT22;54940;50.842;4.410;2023-07-31T01:04:51;17.50;99.90
68139;DHT22;54940;50.842;4.410;2023-07-31T01:07:25;17.50;99.90
68139;DHT22;54940;50.842;4.410;2023-07-31T01:10:04;17.50;99.90
68139;DHT22;54940;50.842;4.410;2023-07-31T01:12:34;17.60;99.90
68139;DHT22;54940;50.842;4.410;2023-07-31T01:15:03;17.60;99.90
68139;DHT22;54940;50.842;4.410;2023-07-31T01:17:29;17.50;99.90
68139;DHT22;54940;50.842;4.410;2023-07-31T01:19:56;17.50;99.90
68139;DHT22;54940;50.842;4.410;2023-07-31T01:28:23;17.50;99.90
68139;DHT22;54940;50.842;4.410;2023-07-31T01:30:55;17.60;99.90
68139;DHT22;54940;50.842;4.410;2023-07-31T01:33:26;17.60;99.90
68139;DHT22;54940;50.842;4.410;2023-07-31T01:35:54;17.60;99.90
68139;DHT22;54940;50.842;4.410;2023-07-31T01:38:23;17.60;99.90
68139;DHT22;54940;50.842;4.410;2023-07-31T01:40:53;17.60;99.90
68139;DHT22;54940;50.842;4.410;2023-07-31T01:43:19;17.60;99.90
68139;DHT22;54940;50.842;4.410;2023-07-31T01:45:44;17.60;99.90
68139;DHT22;54940;50.842;4.410;2023-07-31T01:48:10;17.60;99.90
68139;DHT22;54940;50.842;4.410;2023-07-31T01:50:36;17.60;99.90
68139;DHT22;54940;50.842;4.410;2023-07-31T01:53:01;17.50;99.90
68139;DHT22;54940;50.842;4.410;2023-07-31T01:55:27;17.50;99.90
68139;DHT22;54940;50.842;4.410;2023-07-31T01:57:55;17.50;99.90
68139;DHT22;54940;50.842;4.410;2023-07-31T02:00:20;17.60;99.90
68139;DHT22;54940;50.842;4.410;2023-07-31T02:02:46;17.60;99.90
68139;DHT22;54940;50.842;4.410;2023-07-31T02:05:12;17.60;99.90
68139;DHT22;54940;50.842;4.410;2023-07-31T02:07:37;17.50;99.90
68139;DHT22;54940;50.842;4.410;2023-07-31T02:10:03;17.50;99.90
68139;DHT22;54940;50.842;4.410;2023-07-31T02:12:29;17.40;99.90
68139;DHT22;54940;50.842;4.410;2023-07-31T02:14:57;17.40;99.90
68139;DHT22;54940;50.842;4.410;2023-07-31T02:17:25;17.50;99.90
68139;DHT22;54940;50.842;4.410;2023-07-31T02:19:50;17.50;99.90
68139;DHT22;54940;50.842;4.410;2023-07-31T02:22:16;17.60;99.90
68139;DHT22;54940;50.842;4.410;2023-07-31T02:24:42;17.70;99.90
68139;DHT22;54940;50.842;4.410;2023-07-31T02:27:07;17.60;99.90
68139;DHT22;54940;50.842;4.410;2023-07-31T02:29:33;17.60;99.90
68139;DHT22;54940;50.842;4.410;2023-07-31T02:31:58;17.60;99.90
68139;DHT22;54940;50.842;4.410;2023-07-31T02:34:24;17.60;99.90
68139;DHT22;54940;50.842;4.410;2023-07-31T02:36:50;17.60;99.90
68139;DHT22;54940;50.842;4.410;2023-07-31T02:39:15;17.60;99.90
68139;DHT22;54940;50.842;4.410;2023-07-31T02:41:43;17.60;99.90
68139;DHT22;54940;50.842;4.410;2023-07-31T02:44:09;17.60;99.90
68139;DHT22;54940;50.842;4.410;2023-07-31T02:46:35;17.60;99.90
68139;DHT22;54940;50.842;4.410;2023-07-31T02:49:01;17.50;99.90
68139;DHT22;54940;50.842;4.410;2023-07-31T02:51:27;17.50;99.90
68139;DHT22;54940;50.842;4.410;2023-07-31T02:53:52;17.50;99.90
68139;DHT22;54940;50.842;4.410;2023-07-31T02:56:18;17.50;99.90
68139;DHT22;54940;50.842;4.410;2023-07-31T02:58:43;17.50;99.90
68139;DHT22;54940;50.842;4.410;2023-07-31T03:01:09;17.50;99.90
68139;DHT22;54940;50.842;4.410;2023-07-31T03:03:35;17.50;99.90
68139;DHT22;54940;50.842;4.410;2023-07-31T03:06:00;17.50;99.90
68139;DHT22;54940;50.842;4.410;2023-07-31T03:08:31;17.50;99.90
68139;DHT22;54940;50.842;4.410;2023-07-31T03:10:57;17.50;99.90
68139;DHT22;54940;50.842;4.410;2023-07-31T03:13:22;17.50;99.90
68139;DHT22;54940;50.842;4.410;2023-07-31T03:15:48;17.60;99.90
68139;DHT22;54940;50.842;4.410;2023-07-31T03:18:13;17.60;99.90
68139;DHT22;54940;50.842;4.410;2023-07-31T03:20:45;17.60;99.90
68139;DHT22;54940;50.842;4.410;2023-07-31T03:23:11;17.60;99.90
68139;DHT22;54940;50.842;4.410;2023-07-31T03:25:36;17.50;99.90
68139;DHT22;54940;50.842;4.410;2023-07-31T03:28:02;17.40;99.90
68139;DHT22;54940;50.842;4.410;2023-07-31T03:30:28;17.50;99.90
68139;DHT22;54940;50.842;4.410;2023-07-31T03:32:53;17.40;99.90
68139;DHT22;54940;50.842;4.410;2023-07-31T03:35:19;17.40;99.90
68139;DHT22;54940;50.842;4.410;2023-07-31T03:37:45;17.30;99.90
68139;DHT22;54940;50.842;4.410;2023-07-31T03:40:11;17.30;99.90
68139;DHT22;54940;50.842;4.410;2023-07-31T03:42:36;17.40;99.90
68139;DHT22;54940;50.842;4.410;2023-07-31T03:45:02;17.30;99.90
68139;DHT22;54940;50.842;4.410;2023-07-31T03:47:28;17.40;99.90
68139;DHT22;54940;50.842;4.410;2023-07-31T03:49:54;17.40;99.90
68139;DHT22;54940;50.842;4.410;2023-07-31T03:52:20;17.40;99.90
68139;DHT22;54940;50.842;4.410;2023-07-31T03:54:45;17.30;99.90
68139;DHT22;54940;50.842;4.410;2023-07-31T03:57:11;17.30;99.90
68139;DHT22;54940;50.842;4.410;2023-07-31T03:59:37;17.30;99.90
68139;DHT22;54940;50.842;4.410;2023-07-31T04:02:04;17.30;99.90
68139;DHT22;54940;50.842;4.410;2023-07-31T04:04:30;17.30;99.90
68139;DHT22;54940;50.842;4.410;2023-07-31T04:06:56;17.20;99.90
68139;DHT22;54940;50.842;4.410;2023-07-31T04:09:21;17.20;99.90
68139;DHT22;54940;50.842;4.410;2023-07-31T04:11:47;17.20;99.90
68139;DHT22;54940;50.842;4.410;2023-07-31T04:14:13;17.20;99.90
68139;DHT22;54940;50.842;4.410;2023-07-31T04:16:38;17.20;99.90
68139;DHT22;54940;50.842;4.410;2023-07-31T04:19:04;17.20;99.90
68139;DHT22;54940;50.842;4.410;2023-07-31T04:21:30;17.20;99.90
68139;DHT22;54940;50.842;4.410;2023-07-31T04:23:55;17.20;99.90
68139;DHT22;54940;50.842;4.410;2023-07-31T04:26:23;17.20;99.90
68139;DHT22;54940;50.842;4.410;2023-07-31T04:28:49;17.20;99.90
68139;DHT22;54940;50.842;4.410;2023-07-31T04:31:15;17.20;99.90
68139;DHT22;54940;50.842;4.410;2023-07-31T04:33:40;17.20;99.90
68139;DHT22;54940;50.842;4.410;2023-07-31T04:36:06;17.20;99.90
68139;DHT22;54940;50.842;4.410;2023-07-31T04:38:31;17.20;99.90
68139;DHT22;54940;50.842;4.410;2023-07-31T04:40:57;17.20;99.90
68139;DHT22;54940;50.842;4.410;2023-07-31T04:43:23;17.30;99.90
68139;DHT22;54940;50.842;4.410;2023-07-31T04:45:49;17.30;99.90
68139;DHT22;54940;50.842;4.410;2023-07-31T04:48:15;17.40;99.90
68139;DHT22;54940;50.842;4.410;2023-07-31T04:50:41;17.40;99.90
68139;DHT22;54940;50.842;4.410;2023-07-31T04:53:07;17.40;99.90
68139;DHT22;54940;50.842;4.410;2023-07-31T04:55:32;17.30;99.90
68139;DHT22;54940;50.842;4.410;2023-07-31T04:57:59;17.20;99.90
68139;DHT22;54940;50.842;4.410;2023-07-31T05:00:24;17.20;99.90
68139;DHT22;54940;50.842;4.410;2023-07-31T05:02:55;17.20;99.90
68139;DHT22;54940;50.842;4.410;2023-07-31T05:05:21;17.10;99.90
68139;DHT22;54940;50.842;4.410;2023-07-31T05:07:46;17.20;99.90
68139;DHT22;54940;50.842;4.410;2023-07-31T05:10:12;17.10;99.90
68139;DHT22;54940;50.842;4.410;2023-07-31T05:12:38;17.10;99.90
68139;DHT22;54940;50.842;4.410;2023-07-31T05:15:04;17.10;99.90
68139;DHT22;54940;50.842;4.410;2023-07-31T05:17:30;17.10;99.90
68139;DHT22;54940;50.842;4.410;2023-07-31T05:19:55;17.00;99.90
68139;DHT22;54940;50.842;4.410;2023-07-31T05:22:21;16.90;99.90
68139;DHT22;54940;50.842;4.410;2023-07-31T05:24:46;16.90;99.90
68139;DHT22;54940;50.842;4.410;2023-07-31T05:27:12;16.90;99.90
68139;DHT22;54940;50.842;4.410;2023-07-31T05:29:43;16.90;99.90
68139;DHT22;54940;50.842;4.410;2023-07-31T05:32:08;16.90;99.90
68139;DHT22;54940;50.842;4.410;2023-07-31T05:34:34;16.90;99.90
68139;DHT22;54940;50.842;4.410;2023-07-31T05:37:02;17.00;99.90
68139;DHT22;54940;50.842;4.410;2023-07-31T05:39:28;17.00;99.90
68139;DHT22;54940;50.842;4.410;2023-07-31T05:41:53;17.10;99.90
68139;DHT22;54940;50.842;4.410;2023-07-31T05:44:19;17.10;99.90
68139;DHT22;54940;50.842;4.410;2023-07-31T05:46:44;17.10;99.90
68139;DHT22;54940;50.842;4.410;2023-07-31T05:49:10;17.00;99.90
68139;DHT22;54940;50.842;4.410;2023-07-31T05:51:36;17.00;99.90
68139;DHT22;54940;50.842;4.410;2023-07-31T05:54:01;16.90;99.90
68139;DHT22;54940;50.842;4.410;2023-07-31T05:56:27;16.90;99.90
68139;DHT22;54940;50.842;4.410;2023-07-31T05:58:53;16.90;99.90
68139;DHT22;54940;50.842;4.410;2023-07-31T06:01:18;16.90;99.90
68139;DHT22;54940;50.842;4.410;2023-07-31T06:03:44;17.00;99.90
68139;DHT22;54940;50.842;4.410;2023-07-31T06:06:10;17.00;99.90
68139;DHT22;54940;50.842;4.410;2023-07-31T06:08:36;17.00;99.90
68139;DHT22;54940;50.842;4.410;2023-07-31T06:11:01;17.00;99.90
68139;DHT22;54940;50.842;4.410;2023-07-31T06:13:27;17.00;99.90
68139;DHT22;54940;50.842;4.410;2023-07-31T06:15:53;17.00;99.90
68139;DHT22;54940;50.842;4.410;2023-07-31T06:18:18;17.00;99.90
68139;DHT22;54940;50.842;4.410;2023-07-31T06:20:48;16.90;99.90
68139;DHT22;54940;50.842;4.410;2023-07-31T06:23:19;16.90;99.90
68139;DHT22;54940;50.842;4.410;2023-07-31T06:25:44;17.00;99.90
68139;DHT22;54940;50.842;4.410;2023-07-31T06:28:14;17.00;99.90
68139;DHT22;54940;50.842;4.410;2023-07-31T06:30:40;17.00;99.90
68139;DHT22;54940;50.842;4.410;2023-07-31T06:33:06;17.00;99.90
68139;DHT22;54940;50.842;4.410;2023-07-31T06:35:31;17.00;99.90
68139;DHT22;54940;50.842;4.410;2023-07-31T06:37:57;17.00;99.90
68139;DHT22;54940;50.842;4.410;2023-07-31T06:40:25;17.00;99.90
68139;DHT22;54940;50.842;4.410;2023-07-31T06:42:51;17.00;99.90
68139;DHT22;54940;50.842;4.410;2023-07-31T06:45:16;17.00;99.90
68139;DHT22;54940;50.842;4.410;2023-07-31T06:47:42;17.10;99.90
68139;DHT22;54940;50.842;4.410;2023-07-31T06:50:08;17.10;99.90
68139;DHT22;54940;50.842;4.410;2023-07-31T06:52:34;17.10;99.90
68139;DHT22;54940;50.842;4.410;2023-07-31T06:55:16;17.20;99.90
68139;DHT22;54940;50.842;4.410;2023-07-31T06:57:45;17.20;99.90
68139;DHT22;54940;50.842;4.410;2023-07-31T07:00:11;17.30;99.90
68139;DHT22;54940;50.842;4.410;2023-07-31T07:02:37;17.30;99.90
68139;DHT22;54940;50.842;4.410;2023-07-31T07:05:03;17.30;99.90
68139;DHT22;54940;50.842;4.410;2023-07-31T07:07:28;17.30;99.90
68139;DHT22;54940;50.842;4.410;2023-07-31T07:09:54;17.30;99.90
68139;DHT22;54940;50.842;4.410;2023-07-31T07:12:19;17.50;99.90
68139;DHT22;54940;50.842;4.410;2023-07-31T07:14:45;17.50;99.90
68139;DHT22;54940;50.842;4.410;2023-07-31T07:17:14;17.60;99.90
68139;DHT22;54940;50.842;4.410;2023-07-31T07:19:42;17.60;99.90
68139;DHT22;54940;50.842;4.410;2023-07-31T07:22:09;17.70;99.90
68139;DHT22;54940;50.842;4.410;2023-07-31T07:24:35;17.70;99.90
68139;DHT22;54940;50.842;4.410;2023-07-31T07:27:01;17.70;99.90
68139;DHT22;54940;50.842;4.410;2023-07-31T07:29:29;17.70;99.90
68139;DHT22;54940;50.842;4.410;2023-07-31T07:31:54;17.60;99.90
68139;DHT22;54940;50.842;4.410;2023-07-31T07:34:24;17.50;99.90
68139;DHT22;54940;50.842;4.410;2023-07-31T07:36:49;17.50;99.90
68139;DHT22;54940;50.842;4.410;2023-07-31T07:39:17;17.50;99.90
68139;DHT22;54940;50.842;4.410;2023-07-31T07:41:43;17.50;99.90
68139;DHT22;54940;50.842;4.410;2023-07-31T07:44:09;17.50;99.90
68139;DHT22;54940;50.842;4.410;2023-07-31T07:46:34;17.50;99.90
68139;DHT22;54940;50.842;4.410;2023-07-31T07:49:00;17.50;99.90
68139;DHT22;54940;50.842;4.410;2023-07-31T07:51:26;17.60;99.90
68139;DHT22;54940;50.842;4.410;2023-07-31T07:53:51;17.60;99.90
68139;DHT22;54940;50.842;4.410;2023-07-31T07:56:17;17.60;99.90
68139;DHT22;54940;50.842;4.410;2023-07-31T07:58:43;17.60;99.90
68139;DHT22;54940;50.842;4.410;2023-07-31T08:01:08;17.60;99.90
68139;DHT22;54940;50.842;4.410;2023-07-31T08:03:34;17.80;99.90
68139;DHT22;54940;50.842;4.410;2023-07-31T08:06:00;17.80;99.90
68139;DHT22;54940;50.842;4.410;2023-07-31T08:08:27;17.70;99.90
68139;DHT22;54940;50.842;4.410;2023-07-31T08:10:55;17.70;99.90
68139;DHT22;54940;50.842;4.410;2023-07-31T08:13:21;17.80;99.90
68139;DHT22;54940;50.842;4.410;2023-07-31T08:15:46;17.70;99.90
68139;DHT22;54940;50.842;4.410;2023-07-31T08:18:12;17.70;99.90
68139;DHT22;54940;50.842;4.410;2023-07-31T08:20:38;17.70;99.90
68139;DHT22;54940;50.842;4.410;2023-07-31T08:23:04;17.80;99.90
68139;DHT22;54940;50.842;4.410;2023-07-31T08:25:29;17.70;99.90
68139;DHT22;54940;50.842;4.410;2023-07-31T08:27:55;17.60;99.90
68139;DHT22;54940;50.842;4.410;2023-07-31T08:30:21;17.60;99.90
68139;DHT22;54940;50.842;4.410;2023-07-31T08:32:47;17.60;99.90
68139;DHT22;54940;50.842;4.410;2023-07-31T08:35:12;17.60;99.90
68139;DHT22;54940;50.842;4.410;2023-07-31T08:37:38;17.60;99.90
68139;DHT22;54940;50.842;4.410;2023-07-31T08:40:05;17.60;99.90
68139;DHT22;54940;50.842;4.410;2023-07-31T08:42:31;17.60;99.90
68139;DHT22;54940;50.842;4.410;2023-07-31T08:44:58;17.70;99.90
68139;DHT22;54940;50.842;4.410;2023-07-31T08:47:26;17.60;99.90
68139;DHT22;54940;50.842;4.410;2023-07-31T08:49:53;17.60;99.90
68139;DHT22;54940;50.842;4.410;2023-07-31T08:52:19;17.70;99.90
68139;DHT22;54940;50.842;4.410;2023-07-31T08:54:45;17.70;99.90
68139;DHT22;54940;50.842;4.410;2023-07-31T08:57:11;17.70;99.90
68139;DHT22;54940;50.842;4.410;2023-07-31T08:59:38;17.60;99.90
68139;DHT22;54940;50.842;4.410;2023-07-31T09:02:08;17.60;99.90
68139;DHT22;54940;50.842;4.410;2023-07-31T09:04:35;17.50;99.90
68139;DHT22;54940;50.842;4.410;2023-07-31T09:07:02;17.60;99.90
68139;DHT22;54940;50.842;4.410;2023-07-31T09:09:30;17.70;99.90
68139;DHT22;54940;50.842;4.410;2023-07-31T09:11:57;17.70;99.90
68139;DHT22;54940;50.842;4.410;2023-07-31T09:14:25;17.70;99.90
68139;DHT22;54940;50.842;4.410;2023-07-31T09:16:55;17.80;99.90
68139;DHT22;54940;50.842;4.410;2023-07-31T09:19:33;17.90;99.90
68139;DHT22;54940;50.842;4.410;2023-07-31T09:22:00;17.90;99.90
68139;DHT22;54940;50.842;4.410;2023-07-31T09:24:27;18.00;99.90
68139;DHT22;54940;50.842;4.410;2023-07-31T09:26:56;18.10;99.90
68139;DHT22;54940;50.842;4.410;2023-07-31T09:29:23;18.10;99.90
68139;DHT22;54940;50.842;4.410;2023-07-31T09:31:51;18.10;99.90
68139;DHT22;54940;50.842;4.410;2023-07-31T09:34:16;18.10;99.90
68139;DHT22;54940;50.842;4.410;2023-07-31T09:36:47;18.20;99.90
68139;DHT22;54940;50.842;4.410;2023-07-31T09:39:14;18.20;99.90
68139;DHT22;54940;50.842;4.410;2023-07-31T09:41:47;18.10;99.90
68139;DHT22;54940;50.842;4.410;2023-07-31T09:44:18;18.00;99.90
68139;DHT22;54940;50.842;4.410;2023-07-31T09:46:44;17.90;99.90
68139;DHT22;54940;50.842;4.410;2023-07-31T09:49:11;17.90;99.90
68139;DHT22;54940;50.842;4.410;2023-07-31T09:51:38;17.90;99.90
68139;DHT22;54940;50.842;4.410;2023-07-31T09:54:15;18.00;99.90
68139;DHT22;54940;50.842;4.410;2023-07-31T09:56:44;18.10;99.90
68139;DHT22;54940;50.842;4.410;2023-07-31T09:59:15;18.00;99.90
68139;DHT22;54940;50.842;4.410;2023-07-31T10:01:43;18.00;99.90
68139;DHT22;54940;50.842;4.410;2023-07-31T10:04:12;18.00;99.90
68139;DHT22;54940;50.842;4.410;2023-07-31T10:06:39;18.10;99.90
68139;DHT22;54940;50.842;4.410;2023-07-31T10:09:09;18.10;99.90
68139;DHT22;54940;50.842;4.410;2023-07-31T10:11:38;18.20;99.90
68139;DHT22;54940;50.842;4.410;2023-07-31T10:14:07;18.10;99.90
68139;DHT22;54940;50.842;4.410;2023-07-31T10:16:37;18.10;99.90
68139;DHT22;54940;50.842;4.410;2023-07-31T10:19:03;18.10;99.90
68139;DHT22;54940;50.842;4.410;2023-07-31T10:21:29;18.30;99.90
68139;DHT22;54940;50.842;4.410;2023-07-31T10:23:55;18.40;99.90
68139;DHT22;54940;50.842;4.410;2023-07-31T10:26:23;18.30;99.90
68139;DHT22;54940;50.842;4.410;2023-07-31T10:28:52;18.40;99.90
68139;DHT22;54940;50.842;4.410;2023-07-31T10:31:21;18.50;99.90
68139;DHT22;54940;50.842;4.410;2023-07-31T10:33:47;18.60;99.90
68139;DHT22;54940;50.842;4.410;2023-07-31T10:36:20;18.80;99.90
68139;DHT22;54940;50.842;4.410;2023-07-31T10:38:49;18.70;99.90
68139;DHT22;54940;50.842;4.410;2023-07-31T10:41:15;18.60;99.90
68139;DHT22;54940;50.842;4.410;2023-07-31T10:43:41;18.60;99.90
68139;DHT22;54940;50.842;4.410;2023-07-31T10:46:07;18.60;99.90
68139;DHT22;54940;50.842;4.410;2023-07-31T10:48:35;18.50;99.90
68139;DHT22;54940;50.842;4.410;2023-07-31T10:51:10;18.50;99.90
68139;DHT22;54940;50.842;4.410;2023-07-31T10:53:36;18.60;99.90
68139;DHT22;54940;50.842;4.410;2023-07-31T10:56:08;18.70;99.90
68139;DHT22;54940;50.842;4.410;2023-07-31T10:58:34;18.70;99.90
68139;DHT22;54940;50.842;4.410;2023-07-31T11:01:03;18.80;99.90
68139;DHT22;54940;50.842;4.410;2023-07-31T11:03:50;18.80;99.90
68139;DHT22;54940;50.842;4.410;2023-07-31T11:06:19;18.70;99.90
68139;DHT22;54940;50.842;4.410;2023-07-31T11:08:49;18.80;99.90
68139;DHT22;54940;50.842;4.410;2023-07-31T11:11:19;18.90;99.90
68139;DHT22;54940;50.842;4.410;2023-07-31T11:16:16;19.00;99.90
68139;DHT22;54940;50.842;4.410;2023-07-31T11:18:44;19.00;99.90
68139;DHT22;54940;50.842;4.410;2023-07-31T11:21:18;19.10;99.90
68139;DHT22;54940;50.842;4.410;2023-07-31T11:23:48;19.20;99.90
68139;DHT22;54940;50.842;4.410;2023-07-31T11:26:14;19.20;99.90
68139;DHT22;54940;50.842;4.410;2023-07-31T11:28:40;19.20;99.90
68139;DHT22;54940;50.842;4.410;2023-07-31T11:31:09;19.20;99.90
68139;DHT22;54940;50.842;4.410;2023-07-31T11:33:35;19.20;99.90
68139;DHT22;54940;50.842;4.410;2023-07-31T11:36:01;19.10;99.90
68139;DHT22;54940;50.842;4.410;2023-07-31T11:38:29;19.00;99.90
68139;DHT22;54940;50.842;4.410;2023-07-31T11:40:57;19.10;99.90
68139;DHT22;54940;50.842;4.410;2023-07-31T11:43:25;19.20;99.90
68139;DHT22;54940;50.842;4.410;2023-07-31T11:45:54;19.10;99.90
68139;DHT22;54940;50.842;4.410;2023-07-31T11:50:50;19.20;99.90
68139;DHT22;54940;50.842;4.410;2023-07-31T11:53:31;19.10;99.90
68139;DHT22;54940;50.842;4.410;2023-07-31T11:55:59;19.10;99.90
68139;DHT22;54940;50.842;4.410;2023-07-31T11:58:26;19.20;99.90
68139;DHT22;54940;50.842;4.410;2023-07-31T12:00:52;19.30;99.90
68139;DHT22;54940;50.842;4.410;2023-07-31T12:03:19;19.30;99.90
68139;DHT22;54940;50.842;4.410;2023-07-31T12:05:47;19.40;99.90
68139;DHT22;54940;50.842;4.410;2023-07-31T12:08:13;19.50;99.90
68139;DHT22;54940;50.842;4.410;2023-07-31T12:10:39;19.60;99.90
68139;DHT22;54940;50.842;4.410;2023-07-31T12:13:07;19.60;99.90
68139;DHT22;54940;50.842;4.410;2023-07-31T12:15:43;19.80;99.90
68139;DHT22;54940;50.842;4.410;2023-07-31T12:18:14;19.90;99.90
68139;DHT22;54940;50.842;4.410;2023-07-31T12:20:43;19.90;99.90
68139;DHT22;54940;50.842;4.410;2023-07-31T12:23:17;19.90;99.90
68139;DHT22;54940;50.842;4.410;2023-07-31T12:25:43;19.80;99.90
68139;DHT22;54940;50.842;4.410;2023-07-31T12:28:09;19.70;99.90
68139;DHT22;54940;50.842;4.410;2023-07-31T12:30:39;19.70;99.90
68139;DHT22;54940;50.842;4.410;2023-07-31T12:33:15;19.70;99.90
68139;DHT22;54940;50.842;4.410;2023-07-31T12:35:46;19.80;99.90
68139;DHT22;54940;50.842;4.410;2023-07-31T12:38:13;19.80;99.90
68139;DHT22;54940;50.842;4.410;2023-07-31T12:40:40;19.70;99.90
68139;DHT22;54940;50.842;4.410;2023-07-31T12:43:08;19.70;99.90
68139;DHT22;54940;50.842;4.410;2023-07-31T12:45:34;19.70;99.90
68139;DHT22;54940;50.842;4.410;2023-07-31T12:48:01;19.90;99.90
68139;DHT22;54940;50.842;4.410;2023-07-31T12:50:27;20.00;99.90
68139;DHT22;54940;50.842;4.410;2023-07-31T12:52:56;20.10;99.90
68139;DHT22;54940;50.842;4.410;2023-07-31T12:55:22;20.10;99.90
68139;DHT22;54940;50.842;4.410;2023-07-31T12:57:49;20.10;99.90
68139;DHT22;54940;50.842;4.410;2023-07-31T13:00:15;20.00;99.90
68139;DHT22;54940;50.842;4.410;2023-07-31T13:02:40;20.00;99.90
68139;DHT22;54940;50.842;4.410;2023-07-31T13:05:06;19.80;99.90
68139;DHT22;54940;50.842;4.410;2023-07-31T13:07:34;19.70;99.90
68139;DHT22;54940;50.842;4.410;2023-07-31T13:10:02;19.50;99.90
68139;DHT22;54940;50.842;4.410;2023-07-31T13:12:28;19.40;99.90
68139;DHT22;54940;50.842;4.410;2023-07-31T13:14:53;19.30;99.90
68139;DHT22;54940;50.842;4.410;2023-07-31T13:17:19;19.20;99.90
68139;DHT22;54940;50.842;4.410;2023-07-31T13:19:45;19.30;99.90
68139;DHT22;54940;50.842;4.410;2023-07-31T13:22:10;19.10;99.90
68139;DHT22;54940;50.842;4.410;2023-07-31T13:24:36;19.20;99.90
68139;DHT22;54940;50.842;4.410;2023-07-31T13:27:04;19.10;99.90
68139;DHT22;54940;50.842;4.410;2023-07-31T13:29:30;19.10;99.90
68139;DHT22;54940;50.842;4.410;2023-07-31T13:31:55;19.10;99.90
68139;DHT22;54940;50.842;4.410;2023-07-31T13:34:21;19.10;99.90
68139;DHT22;54940;50.842;4.410;2023-07-31T13:36:47;18.90;99.90
68139;DHT22;54940;50.842;4.410;2023-07-31T13:39:12;18.90;99.90
68139;DHT22;54940;50.842;4.410;2023-07-31T13:41:38;18.80;99.90
68139;DHT22;54940;50.842;4.410;2023-07-31T13:44:04;18.80;99.90
68139;DHT22;54940;50.842;4.410;2023-07-31T13:46:29;18.70;99.90
68139;DHT22;54940;50.842;4.410;2023-07-31T13:48:55;18.70;99.90
68139;DHT22;54940;50.842;4.410;2023-07-31T13:51:23;18.70;99.90
68139;DHT22;54940;50.842;4.410;2023-07-31T13:53:49;18.70;99.90
68139;DHT22;54940;50.842;4.410;2023-07-31T13:56:14;18.70;99.90
68139;DHT22;54940;50.842;4.410;2023-07-31T13:58:40;18.70;99.90
68139;DHT22;54940;50.842;4.410;2023-07-31T14:01:06;18.80;99.90
68139;DHT22;54940;50.842;4.410;2023-07-31T14:03:31;18.80;99.90
68139;DHT22;54940;50.842;4.410;2023-07-31T14:05:57;18.80;99.90
68139;DHT22;54940;50.842;4.410;2023-07-31T14:08:23;18.70;99.90
68139;DHT22;54940;50.842;4.410;2023-07-31T14:10:48;18.60;99.90
68139;DHT22;54940;50.842;4.410;2023-07-31T14:13:16;18.50;99.90
68139;DHT22;54940;50.842;4.410;2023-07-31T14:15:42;18.40;99.90
68139;DHT22;54940;50.842;4.410;2023-07-31T14:18:08;18.50;99.90
68139;DHT22;54940;50.842;4.410;2023-07-31T14:20:34;18.50;99.90
68139;DHT22;54940;50.842;4.410;2023-07-31T14:23:00;18.50;99.90
68139;DHT22;54940;50.842;4.410;2023-07-31T14:25:29;18.50;99.90
68139;DHT22;54940;50.842;4.410;2023-07-31T14:27:54;18.40;99.90
68139;DHT22;54940;50.842;4.410;2023-07-31T14:30:20;18.40;99.90
68139;DHT22;54940;50.842;4.410;2023-07-31T14:32:46;18.40;99.90
68139;DHT22;54940;50.842;4.410;2023-07-31T14:35:12;18.40;99.90
68139;DHT22;54940;50.842;4.410;2023-07-31T14:37:42;18.50;99.90
68139;DHT22;54940;50.842;4.410;2023-07-31T14:40:10;18.50;99.90
68139;DHT22;54940;50.842;4.410;2023-07-31T14:42:36;18.50;99.90
68139;DHT22;54940;50.842;4.410;2023-07-31T14:45:05;18.40;99.90
68139;DHT22;54940;50.842;4.410;2023-07-31T14:47:31;18.30;99.90
68139;DHT22;54940;50.842;4.410;2023-07-31T14:49:58;18.40;99.90
68139;DHT22;54940;50.842;4.410;2023-07-31T14:52:24;18.30;99.90
68139;DHT22;54940;50.842;4.410;2023-07-31T14:54:55;18.40;99.90
68139;DHT22;54940;50.842;4.410;2023-07-31T14:57:20;18.40;99.90
68139;DHT22;54940;50.842;4.410;2023-07-31T14:59:46;18.40;99.90
68139;DHT22;54940;50.842;4.410;2023-07-31T15:02:12;18.30;99.90
68139;DHT22;54940;50.842;4.410;2023-07-31T15:04:38;18.30;99.90
68139;DHT22;54940;50.842;4.410;2023-07-31T15:07:04;18.30;99.90
68139;DHT22;54940;50.842;4.410;2023-07-31T15:09:30;18.20;99.90
68139;DHT22;54940;50.842;4.410;2023-07-31T15:11:56;18.20;99.90
68139;DHT22;54940;50.842;4.410;2023-07-31T15:14:23;18.30;99.90
68139;DHT22;54940;50.842;4.410;2023-07-31T15:16:48;18.30;99.90
68139;DHT22;54940;50.842;4.410;2023-07-31T15:19:16;18.30;99.90
68139;DHT22;54940;50.842;4.410;2023-07-31T15:21:42;18.30;99.90
68139;DHT22;54940;50.842;4.410;2023-07-31T15:24:08;18.30;99.90
68139;DHT22;54940;50.842;4.410;2023-07-31T15:26:36;18.30;99.90
68139;DHT22;54940;50.842;4.410;2023-07-31T15:29:04;18.30;99.90
68139;DHT22;54940;50.842;4.410;2023-07-31T15:31:40;18.30;99.90
68139;DHT22;54940;50.842;4.410;2023-07-31T15:34:06;18.40;99.90
68139;DHT22;54940;50.842;4.410;2023-07-31T15:36:32;18.30;99.90
68139;DHT22;54940;50.842;4.410;2023-07-31T15:38:58;18.30;99.90